createdAt,value
2019-03-31T00:00:04.005Z,71.88
2019-03-31T00:10:02.795Z,72.62
2019-03-31T00:20:02.679Z,73.05
2019-03-31T00:30:03.848Z,73.28
2019-03-31T00:40:02.715Z,73.67
2019-03-31T00:50:03.126Z,74.14
2019-03-31T01:00:03.303Z,75.07
2019-03-31T01:10:03.136Z,75.27
2019-03-31T01:20:02.838Z,75.17
2019-03-31T01:30:03.332Z,75.40
2019-03-31T01:40:03.368Z,75.93
2019-03-31T01:50:02.942Z,76.33
2019-03-31T02:00:03.243Z,76.33
2019-03-31T02:10:02.765Z,76.73
2019-03-31T02:20:03.566Z,76.52
2019-03-31T02:30:03.523Z,76.51
2019-03-31T02:40:03.331Z,76.97
2019-03-31T02:50:03.297Z,76.69
2019-03-31T03:00:04.069Z,76.18
2019-03-31T03:10:03.212Z,76.90
2019-03-31T03:20:07.958Z,77.33
2019-03-31T03:30:03.762Z,77.64
2019-03-31T03:40:02.948Z,77.94
2019-03-31T03:50:03.347Z,78.91
2019-03-31T04:00:03.796Z,80.01
2019-03-31T04:10:03.345Z,80.72
2019-03-31T04:20:03.261Z,80.49
2019-03-31T04:30:03.099Z,79.99
2019-03-31T04:40:03.150Z,80.04
2019-03-31T04:50:02.618Z,80.47
2019-03-31T05:00:03.436Z,81.36
2019-03-31T05:10:03.255Z,81.63
2019-03-31T05:20:03.270Z,80.07
2019-03-31T05:30:03.706Z,76.24
2019-03-31T05:40:03.251Z,73.39
2019-03-31T05:50:02.632Z,70.55
2019-03-31T06:00:03.981Z,68.37
2019-03-31T06:10:03.304Z,67.71
2019-03-31T06:20:03.157Z,65.90
2019-03-31T06:30:03.217Z,63.88
2019-03-31T06:40:03.200Z,60.68
2019-03-31T06:50:02.620Z,59.02
2019-03-31T07:00:04.309Z,56.37
2019-03-31T07:10:03.336Z,53.19
2019-03-31T07:20:03.493Z,50.20
2019-03-31T07:30:07.061Z,46.97
2019-03-31T07:40:03.072Z,44.41
2019-03-31T07:50:03.054Z,43.28
2019-03-31T08:00:04.057Z,42.30
2019-03-31T08:10:02.688Z,38.70
2019-03-31T08:20:02.585Z,38.18
2019-03-31T08:30:03.700Z,37.66
2019-03-31T08:40:02.430Z,34.73
2019-03-31T08:50:03.228Z,36.33
2019-03-31T09:00:04.194Z,38.43
2019-03-31T09:10:03.352Z,35.43
2019-03-31T09:20:03.426Z,36.98
2019-03-31T09:30:03.637Z,36.09
2019-03-31T09:40:03.288Z,35.06
2019-03-31T09:50:03.018Z,34.92
2019-03-31T10:00:03.595Z,33.04
2019-03-31T10:10:02.983Z,29.46
2019-03-31T10:20:02.945Z,29.80
2019-03-31T10:30:03.111Z,28.12
2019-03-31T10:40:03.353Z,28.90
2019-03-31T10:50:02.666Z,28.88
2019-03-31T11:00:04.051Z,29.00
2019-03-31T11:10:03.322Z,26.86
2019-03-31T11:20:03.037Z,28.16
2019-03-31T11:30:03.409Z,26.46
2019-03-31T11:40:03.190Z,24.61
2019-03-31T11:50:02.491Z,24.91
2019-03-31T12:00:03.886Z,26.00
2019-03-31T12:10:03.840Z,24.88
2019-03-31T12:20:02.589Z,23.13
2019-03-31T12:30:03.694Z,24.44
2019-03-31T12:40:02.717Z,24.71
2019-03-31T12:50:03.113Z,23.88
2019-03-31T13:00:03.480Z,25.57
2019-03-31T13:10:03.097Z,25.38
2019-03-31T13:20:03.032Z,26.39
2019-03-31T13:30:03.287Z,26.85
2019-03-31T13:40:02.818Z,25.58
2019-03-31T13:50:03.295Z,26.37
2019-03-31T14:00:03.702Z,26.77
2019-03-31T14:10:03.279Z,26.42
2019-03-31T14:20:03.241Z,26.23
2019-03-31T14:30:03.638Z,26.91
2019-03-31T14:40:02.843Z,29.73
2019-03-31T14:50:03.406Z,30.35
2019-03-31T15:00:15.469Z,29.56
2019-03-31T15:10:03.272Z,28.46
2019-03-31T15:20:03.487Z,29.38
2019-03-31T15:30:03.918Z,28.63
2019-03-31T15:40:02.586Z,28.61
2019-03-31T15:50:02.981Z,29.54
2019-03-31T16:00:03.490Z,30.79
2019-03-31T16:10:02.863Z,30.92
2019-03-31T16:20:02.674Z,30.72
2019-03-31T16:30:03.700Z,30.83
2019-03-31T16:40:02.716Z,31.11
2019-03-31T16:50:02.671Z,31.66
2019-03-31T17:00:04.239Z,32.68
2019-03-31T17:10:02.533Z,32.74
2019-03-31T17:20:03.274Z,34.12
2019-03-31T17:30:03.608Z,35.36
2019-03-31T17:40:07.245Z,36.27
2019-03-31T17:50:02.792Z,37.03
2019-03-31T18:00:04.175Z,37.77
2019-03-31T18:10:02.621Z,38.46
2019-03-31T18:20:03.369Z,38.78
2019-03-31T18:30:04.814Z,38.98
2019-03-31T18:40:03.145Z,39.56
2019-03-31T18:50:02.647Z,40.61
2019-03-31T19:00:04.069Z,41.45
2019-03-31T19:10:02.693Z,42.22
2019-03-31T19:20:03.301Z,42.79
2019-03-31T19:30:03.640Z,41.84
2019-03-31T19:40:03.193Z,40.32
2019-03-31T19:50:02.653Z,39.46
2019-03-31T20:00:03.237Z,40.08
2019-03-31T20:10:03.315Z,41.49
2019-03-31T20:20:03.033Z,42.70
2019-03-31T20:30:04.087Z,43.93
2019-03-31T20:40:03.429Z,44.28
2019-03-31T20:50:03.382Z,46.91
2019-03-31T21:00:03.746Z,53.00
2019-03-31T21:10:02.844Z,54.60
2019-03-31T21:20:03.114Z,54.98
2019-03-31T21:30:03.406Z,56.97
2019-03-31T21:40:03.138Z,58.76
2019-03-31T21:50:02.928Z,59.88
2019-03-31T22:00:03.351Z,61.53
2019-03-31T22:10:03.173Z,64.40
2019-03-31T22:20:02.924Z,64.18
2019-03-31T22:30:03.693Z,65.68
2019-03-31T22:40:03.622Z,66.86
2019-03-31T22:50:03.259Z,68.83
2019-03-31T23:00:03.209Z,69.98
2019-03-31T23:10:03.126Z,70.66
2019-03-31T23:20:02.892Z,71.06
2019-03-31T23:30:03.771Z,71.37
2019-03-31T23:40:03.018Z,68.29
2019-03-31T23:50:02.693Z,67.90
